Time;durP1;ratioP1;P1;durP2;ratioP2;P2;SDS_P1;SDS_P2;PMS_P1;PMS_P2;Temp;Humidity;BMP_temperature;BMP_pressure;BME280_temperature;BME280_humidity;BME280_pressure;Samples;Min_cycle;Max_cycle;Signal;HPM_P1;HPM_P2
2023/10/24 00:01:01;;;;;;;2.57;2.37;;;11.60;99.90;;;;;;5074425;28;20178;-85
2023/10/24 00:03:27;;;;;;;7.40;2.93;;;11.60;99.90;;;;;;5057471;28;20292;-85
2023/10/24 00:05:53;;;;;;;2.13;1.93;;;11.70;99.90;;;;;;5057387;28;20312;-84
2023/10/24 00:08:19;;;;;;;2.87;1.43;;;11.60;99.90;;;;;;5057571;28;20205;-86
2023/10/24 00:10:45;;;;;;;2.33;2.03;;;11.60;99.90;;;;;;5057297;28;20259;-85
2023/10/24 00:13:11;;;;;;;3.23;2.07;;;11.60;99.90;;;;;;5073657;28;20633;-85
2023/10/24 00:15:36;;;;;;;2.33;1.63;;;11.60;99.90;;;;;;5058416;28;20181;-85
2023/10/24 00:18:02;;;;;;;3.63;2.83;;;11.60;99.90;;;;;;5065678;28;20661;-85
2023/10/24 00:20:28;;;;;;;2.67;2.33;;;11.60;99.90;;;;;;5074084;28;20227;-86
2023/10/24 00:22:54;;;;;;;6.03;3.67;;;11.60;99.90;;;;;;5073646;28;20228;-83
2023/10/24 00:25:19;;;;;;;1.83;1.67;;;11.60;99.90;;;;;;5056779;28;20635;-85
2023/10/24 00:27:46;;;;;;;2.97;1.93;;;11.60;99.90;;;;;;5073827;28;20220;-84
2023/10/24 00:30:12;;;;;;;2.60;1.83;;;11.60;99.90;;;;;;5057068;28;20241;-85
2023/10/24 00:32:37;;;;;;;3.93;2.57;;;11.60;99.90;;;;;;5040377;28;20228;-85
2023/10/24 00:35:04;;;;;;;5.17;2.67;;;11.60;99.90;;;;;;5056983;28;20209;-84
2023/10/24 00:37:29;;;;;;;4.57;2.40;;;11.60;99.90;;;;;;5040335;28;20259;-85
2023/10/24 00:39:55;;;;;;;2.87;2.47;;;11.70;99.90;;;;;;5074560;28;20185;-86
2023/10/24 00:42:21;;;;;;;3.43;2.40;;;11.60;99.90;;;;;;5073656;28;20637;-85
2023/10/24 00:44:47;;;;;;;2.20;2.07;;;11.60;99.90;;;;;;5073414;28;20209;-85
2023/10/24 00:47:14;;;;;;;3.10;2.87;;;11.60;99.90;;;;;;5074691;28;20261;-84
2023/10/24 00:49:40;;;;;;;15.47;1.77;;;11.60;99.90;;;;;;5056594;28;20220;-85
2023/10/24 00:52:06;;;;;;;2.33;1.80;;;11.60;99.90;;;;;;5073313;28;20327;-85
2023/10/24 00:54:34;;;;;;;3.33;2.23;;;11.70;99.90;;;;;;5057055;28;20273;-84
2023/10/24 00:57:00;;;;;;;1.70;1.60;;;11.60;99.90;;;;;;5074229;28;20251;-85
2023/10/24 00:59:27;;;;;;;3.70;2.37;;;11.60;99.90;;;;;;5073372;28;20259;-86
2023/10/24 01:01:53;;;;;;;1.57;1.43;;;11.60;99.90;;;;;;5072811;28;20214;-86
2023/10/24 01:04:21;;;;;;;2.20;1.97;;;11.60;99.90;;;;;;5073878;28;20192;-86
2023/10/24 01:06:47;;;;;;;7.63;3.93;;;11.60;99.90;;;;;;5073483;28;20247;-85
2023/10/24 01:09:13;;;;;;;4.50;2.73;;;11.60;99.90;;;;;;5073044;28;20221;-85
2023/10/24 01:11:39;;;;;;;2.87;2.13;;;11.50;99.90;;;;;;5039738;28;20274;-87
2023/10/24 01:14:05;;;;;;;3.67;2.30;;;11.60;99.90;;;;;;5039913;28;20687;-85
2023/10/24 01:16:40;;;;;;;4.40;1.70;;;11.60;99.90;;;;;;5072181;28;20221;-84
2023/10/24 01:19:06;;;;;;;2.47;1.93;;;11.50;99.90;;;;;;5073942;28;20615;-85
2023/10/24 01:21:31;;;;;;;2.80;2.03;;;11.60;99.90;;;;;;5073267;28;20192;-85
2023/10/24 01:23:57;;;;;;;4.47;3.10;;;11.50;99.90;;;;;;5072939;28;20260;-85
2023/10/24 01:26:26;;;;;;;14.40;1.93;;;11.50;99.90;;;;;;5039738;28;20233;-86
2023/10/24 01:28:54;;;;;;;2.87;2.30;;;11.50;99.90;;;;;;5072442;28;20241;-85
2023/10/24 01:31:20;;;;;;;2.80;2.60;;;11.60;99.90;;;;;;5039614;28;20589;-84
2023/10/24 01:33:46;;;;;;;10.57;2.30;;;11.50;99.90;;;;;;5072689;28;20182;-86
2023/10/24 01:36:12;;;;;;;4.27;2.87;;;11.60;99.90;;;;;;5072564;28;20270;-87
2023/10/24 01:38:37;;;;;;;2.87;2.37;;;11.50;99.90;;;;;;5055811;28;20217;-85
2023/10/24 01:41:03;;;;;;;4.80;2.30;;;11.50;99.90;;;;;;5038719;28;20228;-87
2023/10/24 01:43:29;;;;;;;3.87;2.43;;;11.60;99.90;;;;;;5039192;28;20219;-84
2023/10/24 01:45:54;;;;;;;3.47;2.13;;;11.60;99.90;;;;;;5056132;28;20209;-84
2023/10/24 01:48:23;;;;;;;2.50;2.20;;;11.60;99.90;;;;;;5046565;28;20601;-84
2023/10/24 01:50:48;;;;;;;2.80;2.47;;;11.50;99.90;;;;;;5039866;28;20236;-85
2023/10/24 01:53:14;;;;;;;2.40;2.13;;;11.60;99.90;;;;;;5055356;28;20673;-86
2023/10/24 01:55:40;;;;;;;2.43;2.20;;;11.50;99.90;;;;;;5072226;28;20665;-85
2023/10/24 01:58:06;;;;;;;4.43;3.20;;;11.50;99.90;;;;;;5055770;28;20528;-85
2023/10/24 02:00:31;;;;;;;3.70;3.00;;;11.60;99.90;;;;;;5072175;28;20181;-86
2023/10/24 02:02:57;;;;;;;3.93;3.53;;;11.50;99.90;;;;;;5055228;28;20225;-87
2023/10/24 02:05:23;;;;;;;2.57;2.07;;;11.60;99.90;;;;;;5055337;28;20232;-85
2023/10/24 02:07:49;;;;;;;2.37;2.17;;;11.50;99.90;;;;;;5071992;28;20754;-87
2023/10/24 02:10:14;;;;;;;1.87;1.77;;;11.50;99.90;;;;;;5071857;28;20648;-86
2023/10/24 02:12:40;;;;;;;3.80;3.47;;;11.60;99.90;;;;;;5056019;28;20177;-87
2023/10/24 02:15:06;;;;;;;4.57;2.33;;;11.50;99.90;;;;;;5071734;28;20303;-85
2023/10/24 02:17:32;;;;;;;2.13;1.83;;;11.50;99.90;;;;;;5072963;28;20248;-87
2023/10/24 02:19:58;;;;;;;4.70;2.57;;;11.50;99.90;;;;;;5054816;28;20670;-84
2023/10/24 02:22:23;;;;;;;2.93;2.10;;;11.50;99.90;;;;;;5054670;28;20630;-85
2023/10/24 02:24:49;;;;;;;2.17;1.67;;;11.60;99.90;;;;;;5072857;28;20181;-87
2023/10/24 02:27:15;;;;;;;4.57;3.00;;;11.70;99.90;;;;;;5055116;28;20221;-84
2023/10/24 02:29:41;;;;;;;3.50;2.97;;;11.60;99.90;;;;;;5054574;28;20246;-85
2023/10/24 02:32:06;;;;;;;3.70;2.63;;;11.60;99.90;;;;;;5054811;28;20221;-86
2023/10/24 02:34:32;;;;;;;3.03;2.50;;;11.60;99.90;;;;;;5071220;28;20221;-85
2023/10/24 02:36:58;;;;;;;4.87;2.87;;;11.60;99.90;;;;;;5071741;28;20629;-85
2023/10/24 02:39:23;;;;;;;5.27;4.03;;;11.70;99.90;;;;;;5071625;28;20224;-86
2023/10/24 02:41:49;;;;;;;2.07;1.87;;;11.60;99.90;;;;;;5054867;28;20221;-86
2023/10/24 02:44:15;;;;;;;2.83;1.40;;;11.60;99.90;;;;;;5054931;28;20242;-85
2023/10/24 02:46:41;;;;;;;3.03;2.77;;;11.70;99.90;;;;;;5054540;28;20221;-85
2023/10/24 02:49:06;;;;;;;2.23;2.00;;;11.60;99.90;;;;;;5037823;28;20651;-87
2023/10/24 02:51:32;;;;;;;3.27;2.30;;;11.70;99.90;;;;;;5055071;28;20181;-86
2023/10/24 02:53:58;;;;;;;6.37;2.47;;;11.80;99.90;;;;;;5054513;28;20221;-86
2023/10/24 02:56:24;;;;;;;3.23;2.73;;;11.70;99.90;;;;;;5071401;28;20641;-86
2023/10/24 02:58:49;;;;;;;3.30;2.60;;;11.80;99.90;;;;;;5037510;28;20243;-84
2023/10/24 03:01:15;;;;;;;6.17;3.90;;;11.80;99.90;;;;;;5070875;28;20187;-85
2023/10/24 03:03:41;;;;;;;5.33;3.93;;;11.80;99.90;;;;;;5072535;28;20228;-85
2023/10/24 03:06:17;;;;;;;2.43;1.93;;;11.80;99.90;;;;;;5054148;28;20260;-87
2023/10/24 03:08:43;;;;;;;3.83;3.33;;;11.80;99.90;;;;;;5072353;28;20274;-87
2023/10/24 03:11:09;;;;;;;2.27;2.07;;;11.90;99.90;;;;;;5072355;28;20252;-84
2023/10/24 03:13:36;;;;;;;3.17;2.07;;;11.90;99.90;;;;;;5054821;28;20256;-86
2023/10/24 03:16:05;;;;;;;2.33;1.77;;;11.80;99.90;;;;;;5055068;28;20181;-85
2023/10/24 03:18:33;;;;;;;6.67;2.70;;;11.80;99.90;;;;;;5071134;28;20280;-85
2023/10/24 03:20:59;;;;;;;1.73;1.63;;;11.80;99.90;;;;;;5054785;28;20225;-87
2023/10/24 03:23:25;;;;;;;4.70;2.90;;;11.80;99.90;;;;;;5054070;28;20248;-87
2023/10/24 03:25:52;;;;;;;2.47;1.87;;;11.80;99.90;;;;;;5037589;28;20264;-85
2023/10/24 03:28:17;;;;;;;2.43;2.03;;;11.90;99.90;;;;;;5074526;28;20178;-85
2023/10/24 03:30:43;;;;;;;1.70;1.60;;;11.90;99.90;;;;;;5076757;28;20732;-86
2023/10/24 03:33:10;;;;;;;1.80;1.70;;;11.90;99.90;;;;;;5074728;28;20274;-86
2023/10/24 03:35:36;;;;;;;5.37;2.37;;;12.00;99.90;;;;;;5058273;28;20300;-87
2023/10/24 03:38:02;;;;;;;2.80;2.40;;;12.00;99.90;;;;;;5075858;28;20217;-87
2023/10/24 03:40:28;;;;;;;2.47;2.27;;;12.00;99.90;;;;;;5074749;28;20597;-85
2023/10/24 03:42:54;;;;;;;4.20;2.33;;;12.00;99.90;;;;;;5075592;28;20201;-89
2023/10/24 03:45:21;;;;;;;3.30;2.90;;;12.10;99.90;;;;;;5057829;28;20217;-84
2023/10/24 03:47:52;;;;;;;3.10;2.53;;;12.00;99.90;;;;;;5074473;28;20244;-85
2023/10/24 03:50:18;;;;;;;2.17;2.00;;;12.00;99.90;;;;;;5074684;28;20224;-86
2023/10/24 03:52:45;;;;;;;2.47;1.63;;;12.00;99.90;;;;;;5074261;28;20270;-87
2023/10/24 03:55:11;;;;;;;1.87;1.43;;;12.00;99.90;;;;;;5057672;28;20586;-84
2023/10/24 03:57:38;;;;;;;2.60;2.27;;;12.10;99.90;;;;;;5074888;28;20224;-84
2023/10/24 04:00:08;;;;;;;1.50;1.07;;;12.20;99.90;;;;;;5074226;28;20248;-84
2023/10/24 04:02:36;;;;;;;1.60;1.47;;;12.20;99.90;;;;;;5074415;28;20732;-85
2023/10/24 04:05:03;;;;;;;2.23;2.00;;;12.30;99.90;;;;;;5075245;28;20665;-88
2023/10/24 04:07:29;;;;;;;1.93;1.83;;;12.20;99.90;;;;;;5057383;28;20733;-86
2023/10/24 04:09:56;;;;;;;2.07;1.40;;;12.20;99.90;;;;;;5057927;28;20182;-85
2023/10/24 04:12:22;;;;;;;1.43;1.33;;;12.20;99.90;;;;;;5073935;28;20351;-88
2023/10/24 04:14:48;;;;;;;2.37;1.70;;;12.30;99.90;;;;;;5057418;28;20682;-85
2023/10/24 04:17:13;;;;;;;3.30;2.67;;;12.20;99.90;;;;;;5073812;28;20692;-85
2023/10/24 04:19:39;;;;;;;1.60;1.50;;;12.40;99.90;;;;;;5057110;28;20351;-87
2023/10/24 04:22:05;;;;;;;3.00;2.40;;;12.30;99.90;;;;;;5057788;28;20614;-86
2023/10/24 04:24:30;;;;;;;3.10;2.53;;;12.30;99.90;;;;;;5075172;28;20567;-87
2023/10/24 04:26:57;;;;;;;2.10;1.63;;;12.50;99.90;;;;;;5057291;28;20221;-84
2023/10/24 04:29:23;;;;;;;0.67;0.67;;;12.40;99.90;;;;;;5073311;28;20263;-85
2023/10/24 04:31:49;;;;;;;3.10;2.00;;;12.40;99.90;;;;;;5073511;28;20233;-85
2023/10/24 04:34:15;;;;;;;1.80;1.70;;;12.60;99.90;;;;;;5073373;28;20182;-85
2023/10/24 04:36:41;;;;;;;2.13;1.23;;;12.50;99.90;;;;;;5073965;28;20192;-86
2023/10/24 04:39:07;;;;;;;2.63;2.43;;;12.60;99.90;;;;;;5072219;28;20244;-85
2023/10/24 04:41:32;;;;;;;1.17;0.80;;;12.60;99.90;;;;;;5074683;28;20221;-85
2023/10/24 04:43:58;;;;;;;1.03;1.03;;;12.60;99.90;;;;;;5057162;28;20213;-87
2023/10/24 04:46:24;;;;;;;3.27;2.93;;;12.70;99.90;;;;;;5056759;28;20213;-85
2023/10/24 04:48:49;;;;;;;1.60;1.30;;;12.70;99.90;;;;;;5075506;28;20185;-85
2023/10/24 04:51:15;;;;;;;1.30;1.30;;;12.70;99.90;;;;;;5056767;28;20217;-84
2023/10/24 04:53:41;;;;;;;5.57;1.87;;;12.70;99.90;;;;;;5056879;28;20249;-85
2023/10/24 04:56:07;;;;;;;1.63;1.53;;;12.70;99.90;;;;;;5072974;28;20237;-85
2023/10/24 04:58:33;;;;;;;1.70;1.60;;;12.70;99.90;;;;;;5056772;28;20288;-86
2023/10/24 05:00:59;;;;;;;1.97;1.83;;;12.60;99.90;;;;;;5074376;28;20535;-87
2023/10/24 05:03:25;;;;;;;2.37;1.40;;;12.60;99.90;;;;;;5074378;28;20228;-85
2023/10/24 05:05:50;;;;;;;1.77;1.60;;;12.70;99.90;;;;;;5074454;28;20209;-86
2023/10/24 05:08:16;;;;;;;6.23;1.73;;;12.70;99.90;;;;;;5040110;28;20213;-85
2023/10/24 05:10:42;;;;;;;4.43;3.00;;;12.90;99.90;;;;;;5056389;28;20209;-85
2023/10/24 05:13:08;;;;;;;2.80;2.57;;;12.90;99.90;;;;;;5056796;28;20212;-87
2023/10/24 05:15:33;;;;;;;1.60;1.50;;;12.80;99.90;;;;;;5056378;28;20209;-86
2023/10/24 05:17:59;;;;;;;4.40;2.60;;;12.90;99.90;;;;;;5074180;28;20240;-87
2023/10/24 05:20:25;;;;;;;3.23;2.77;;;13.00;99.90;;;;;;5073107;28;20225;-86
2023/10/24 05:22:51;;;;;;;1.87;1.60;;;12.90;99.90;;;;;;5039571;28;20228;-86
2023/10/24 05:25:16;;;;;;;2.23;1.67;;;12.90;99.90;;;;;;5039946;28;20180;-85
2023/10/24 05:27:42;;;;;;;2.80;2.60;;;12.90;99.90;;;;;;5056488;28;20645;-85
2023/10/24 05:30:12;;;;;;;2.90;2.43;;;13.00;99.90;;;;;;5072168;28;20233;-86
2023/10/24 05:32:38;;;;;;;2.00;1.60;;;13.00;99.90;;;;;;5072856;28;20560;-88
2023/10/24 05:35:04;;;;;;;3.43;2.27;;;13.10;99.90;;;;;;5055912;28;20266;-85
2023/10/24 05:37:30;;;;;;;3.70;2.67;;;13.00;99.90;;;;;;5056289;28;20216;-85
2023/10/24 05:39:56;;;;;;;3.53;2.47;;;13.20;99.90;;;;;;5073841;28;20193;-85
2023/10/24 05:42:21;;;;;;;2.50;1.93;;;13.10;99.90;;;;;;5055895;28;20221;-85
2023/10/24 05:44:47;;;;;;;3.53;2.97;;;13.20;99.90;;;;;;5072526;28;20225;-87
2023/10/24 05:47:14;;;;;;;3.73;3.43;;;13.20;99.90;;;;;;5055447;28;20241;-84
2023/10/24 05:49:39;;;;;;;5.53;3.03;;;13.20;99.90;;;;;;5072117;28;20296;-85
2023/10/24 05:52:05;;;;;;;3.30;3.00;;;13.40;99.90;;;;;;5073588;28;20209;-87
2023/10/24 05:54:31;;;;;;;5.13;2.97;;;13.20;99.90;;;;;;5039262;28;20209;-84
2023/10/24 05:56:57;;;;;;;5.23;2.83;;;13.30;99.90;;;;;;5071888;28;20304;-85
2023/10/24 05:59:23;;;;;;;6.50;4.50;;;13.30;99.90;;;;;;5073282;28;20244;-85
2023/10/24 06:01:49;;;;;;;3.57;2.80;;;13.40;99.90;;;;;;5055166;28;20221;-85
2023/10/24 06:04:15;;;;;;;4.30;3.23;;;13.40;99.90;;;;;;5055001;28;20633;-86
2023/10/24 06:06:40;;;;;;;5.17;4.10;;;13.60;99.90;;;;;;5055793;28;20213;-85
2023/10/24 06:09:07;;;;;;;5.53;3.90;;;13.50;99.90;;;;;;5072108;28;20224;-83
2023/10/24 06:11:32;;;;;;;3.27;3.07;;;13.60;99.90;;;;;;5072839;28;20221;-84
2023/10/24 06:13:59;;;;;;;5.77;4.97;;;13.50;99.90;;;;;;5072749;28;20545;-83
2023/10/24 06:16:24;;;;;;;4.80;3.57;;;13.60;99.90;;;;;;5055135;28;20272;-86
2023/10/24 06:18:50;;;;;;;5.40;4.13;;;13.50;99.90;;;;;;5071998;28;20204;-85
2023/10/24 06:21:16;;;;;;;6.97;4.10;;;13.70;99.90;;;;;;5071685;28;20709;-85
2023/10/24 06:23:43;;;;;;;5.63;3.67;;;13.60;99.90;;;;;;5054877;28;20213;-84
2023/10/24 06:26:17;;;;;;;5.43;3.40;;;13.60;99.90;;;;;;5072532;28;20233;-85
2023/10/24 06:28:45;;;;;;;4.37;2.87;;;13.70;99.90;;;;;;5070883;28;20217;-88
2023/10/24 06:31:13;;;;;;;4.00;3.47;;;13.60;99.90;;;;;;5073380;28;20661;-91
2023/10/24 06:33:42;;;;;;;6.27;4.33;;;13.60;99.90;;;;;;5073429;28;20307;-92
2023/10/24 06:36:10;;;;;;;5.37;4.87;;;13.60;99.90;;;;;;5071998;28;20221;-90
2023/10/24 06:38:36;;;;;;;4.03;3.47;;;13.60;99.90;;;;;;5072640;28;20645;-90
2023/10/24 06:41:02;;;;;;;5.27;3.40;;;13.70;99.90;;;;;;5055141;28;20216;-89
2023/10/24 06:43:30;;;;;;;6.27;3.60;;;13.60;99.90;;;;;;5063333;28;20626;-91
2023/10/24 06:45:56;;;;;;;5.87;3.73;;;13.60;99.90;;;;;;5071634;28;20189;-89
2023/10/24 06:48:21;;;;;;;5.70;4.57;;;13.60;99.90;;;;;;5063202;28;20208;-89
2023/10/24 06:50:48;;;;;;;5.70;3.77;;;13.60;99.90;;;;;;5072157;28;20782;-88
2023/10/24 06:53:13;;;;;;;5.20;4.30;;;13.60;99.90;;;;;;5071726;28;20291;-90
2023/10/24 06:55:40;;;;;;;5.10;3.37;;;13.60;99.90;;;;;;5071869;28;20209;-89
2023/10/24 06:58:05;;;;;;;6.57;3.80;;;13.70;99.90;;;;;;5073132;28;20470;-87
2023/10/24 07:00:34;;;;;;;5.07;3.50;;;13.80;99.90;;;;;;5072529;28;20296;-89
2023/10/24 07:03:00;;;;;;;5.03;3.87;;;13.60;99.90;;;;;;5071289;28;20216;-90
2023/10/24 07:05:28;;;;;;;4.67;3.80;;;13.70;99.90;;;;;;5071604;28;20283;-89
2023/10/24 07:07:53;;;;;;;7.13;3.93;;;13.70;99.90;;;;;;5071227;28;20217;-87
2023/10/24 07:10:20;;;;;;;5.97;3.60;;;13.70;99.90;;;;;;5046511;28;20234;-90
2023/10/24 07:12:49;;;;;;;6.63;4.13;;;13.80;99.90;;;;;;5072126;28;20181;-89
2023/10/24 07:15:18;;;;;;;4.43;4.03;;;13.70;99.90;;;;;;5070684;28;20217;-89
2023/10/24 07:17:48;;;;;;;5.53;3.30;;;13.70;99.90;;;;;;5064948;28;20228;-89
2023/10/24 07:20:14;;;;;;;7.03;4.47;;;13.70;99.90;;;;;;5054774;28;20308;-89
2023/10/24 07:22:39;;;;;;;7.87;4.33;;;13.80;99.90;;;;;;5072141;28;20283;-90
2023/10/24 07:25:06;;;;;;;5.63;3.80;;;13.80;99.90;;;;;;5071382;28;20271;-87
2023/10/24 07:27:32;;;;;;;7.47;3.20;;;13.80;99.90;;;;;;5053854;28;20220;-86
2023/10/24 07:29:57;;;;;;;4.47;3.63;;;13.70;99.90;;;;;;5071832;28;20245;-86
2023/10/24 07:32:23;;;;;;;4.87;3.07;;;13.70;99.90;;;;;;5070625;28;20321;-88
2023/10/24 07:34:54;;;;;;;3.83;3.43;;;13.70;99.90;;;;;;5053480;28;20692;-85
2023/10/24 07:37:20;;;;;;;6.60;5.07;;;13.70;99.90;;;;;;5038938;28;20261;-84
2023/10/24 07:39:45;;;;;;;6.77;3.43;;;13.70;99.90;;;;;;5070630;28;20211;-86
2023/10/24 07:42:11;;;;;;;4.40;3.57;;;13.70;99.90;;;;;;5037366;28;20217;-85
2023/10/24 07:44:37;;;;;;;4.97;3.50;;;13.70;99.90;;;;;;5070000;28;20679;-86
2023/10/24 07:47:03;;;;;;;4.73;3.53;;;13.60;99.90;;;;;;5071155;28;20312;-85
2023/10/24 07:49:30;;;;;;;7.10;2.77;;;13.60;99.90;;;;;;5053302;28;20258;-85
2023/10/24 07:51:56;;;;;;;4.93;2.40;;;13.70;99.90;;;;;;5037610;28;20227;-85
2023/10/24 07:54:21;;;;;;;4.30;3.30;;;13.60;99.90;;;;;;5053131;28;20214;-86
2023/10/24 07:56:47;;;;;;;4.67;3.40;;;13.70;99.90;;;;;;5070181;28;20214;-86
2023/10/24 07:59:13;;;;;;;3.00;1.90;;;13.70;99.90;;;;;;5053838;28;20244;-86
2023/10/24 08:01:39;;;;;;;3.80;3.50;;;13.70;99.90;;;;;;5070163;28;20224;-85
2023/10/24 08:04:04;;;;;;;7.77;4.73;;;13.60;99.90;;;;;;5053796;28;20177;-83
2023/10/24 08:06:30;;;;;;;5.57;2.80;;;13.60;99.90;;;;;;5036597;28;20226;-85
2023/10/24 08:08:56;;;;;;;5.93;4.03;;;13.60;99.90;;;;;;5053504;28;20217;-85
2023/10/24 08:11:22;;;;;;;3.47;2.93;;;13.50;99.90;;;;;;5037053;28;20217;-85
2023/10/24 08:13:48;;;;;;;3.67;3.33;;;13.60;99.90;;;;;;5072813;28;20213;-84
2023/10/24 08:16:13;;;;;;;4.93;2.70;;;13.60;99.90;;;;;;5040676;28;20654;-84
2023/10/24 08:18:40;;;;;;;7.50;3.73;;;13.60;99.90;;;;;;5057636;28;20633;-84
2023/10/24 08:21:07;;;;;;;7.07;5.07;;;13.60;99.90;;;;;;5073159;28;20224;-85
2023/10/24 08:23:33;;;;;;;6.50;3.70;;;13.50;99.90;;;;;;5073059;28;20241;-85
2023/10/24 08:25:59;;;;;;;5.83;4.07;;;13.50;99.90;;;;;;5073458;28;20661;-85
2023/10/24 08:28:24;;;;;;;4.27;3.87;;;13.60;99.90;;;;;;5056364;28;20629;-84
2023/10/24 08:30:50;;;;;;;4.87;3.40;;;13.40;99.90;;;;;;5056765;28;20236;-85
2023/10/24 08:33:18;;;;;;;5.50;3.33;;;13.40;99.90;;;;;;5073266;28;20237;-85
2023/10/24 08:35:47;;;;;;;5.03;3.43;;;13.50;99.90;;;;;;5073135;28;20665;-82
2023/10/24 08:38:13;;;;;;;3.77;2.83;;;13.50;99.90;;;;;;5047335;28;20236;-87
2023/10/24 08:40:42;;;;;;;6.23;2.97;;;13.60;99.90;;;;;;5074542;28;20680;-84
2023/10/24 08:43:08;;;;;;;4.90;4.00;;;13.50;99.90;;;;;;5072793;28;20188;-85
2023/10/24 08:45:35;;;;;;;6.50;3.30;;;13.60;99.90;;;;;;5073597;28;20625;-84
2023/10/24 08:48:05;;;;;;;5.53;3.70;;;13.60;99.90;;;;;;5072929;28;20229;-84
2023/10/24 08:50:31;;;;;;;5.33;4.23;;;13.60;99.90;;;;;;5072965;28;20213;-87
2023/10/24 08:52:57;;;;;;;5.37;3.57;;;13.70;99.90;;;;;;5073317;28;20213;-87
2023/10/24 08:55:24;;;;;;;7.77;4.30;;;13.70;99.90;;;;;;5056565;28;20186;-86
2023/10/24 08:57:50;;;;;;;6.80;3.93;;;13.70;99.90;;;;;;5073324;28;20190;-84
2023/10/24 09:00:16;;;;;;;7.13;3.40;;;13.60;99.90;;;;;;5056240;28;20271;-85
2023/10/24 09:02:45;;;;;;;9.73;5.43;;;13.80;99.90;;;;;;5072588;28;20328;-85
2023/10/24 09:05:13;;;;;;;7.30;4.90;;;13.60;99.90;;;;;;5056276;28;20205;-86
2023/10/24 09:07:39;;;;;;;9.23;4.67;;;13.70;99.90;;;;;;5072542;28;20232;-86
2023/10/24 09:10:05;;;;;;;8.10;4.57;;;13.70;99.90;;;;;;5073758;28;20569;-85
2023/10/24 09:12:33;;;;;;;11.77;5.53;;;13.70;99.90;;;;;;5039573;28;20213;-86
2023/10/24 09:14:59;;;;;;;8.10;5.40;;;13.60;99.90;;;;;;5055842;28;20669;-86
2023/10/24 09:17:25;;;;;;;7.57;5.03;;;13.70;99.90;;;;;;5071945;28;20232;-86
2023/10/24 09:19:55;;;;;;;10.47;5.53;;;13.70;99.90;;;;;;5073618;28;20209;-86
2023/10/24 09:22:22;;;;;;;11.23;6.33;;;13.70;99.90;;;;;;5071919;28;20185;-85
2023/10/24 09:24:49;;;;;;;7.10;4.80;;;13.80;99.90;;;;;;5038497;28;20178;-85
2023/10/24 09:27:16;;;;;;;8.47;4.97;;;13.80;99.90;;;;;;5073472;28;20367;-86
2023/10/24 09:29:42;;;;;;;8.77;3.83;;;13.80;99.90;;;;;;5055335;28;20295;-84
2023/10/24 09:32:17;;;;;;;9.23;6.00;;;13.80;99.90;;;;;;5071999;28;20229;-85
2023/10/24 09:34:47;;;;;;;11.17;5.40;;;13.80;99.90;;;;;;5055513;28;20216;-84
2023/10/24 09:37:13;;;;;;;8.53;4.77;;;13.70;99.90;;;;;;5071427;28;20640;-84
2023/10/24 09:39:52;;;;;;;7.13;5.60;;;13.80;99.90;;;;;;5072681;28;20276;-85
2023/10/24 09:42:26;;;;;;;8.20;5.63;;;13.70;99.90;;;;;;5071343;28;20314;-86
2023/10/24 09:44:57;;;;;;;6.33;4.93;;;13.70;99.90;;;;;;5071565;28;20224;-84
2023/10/24 09:47:24;;;;;;;8.40;4.60;;;13.80;99.90;;;;;;5071476;28;20282;-85
2023/10/24 09:49:51;;;;;;;7.83;4.87;;;13.80;99.90;;;;;;5072613;28;20216;-84
2023/10/24 09:52:19;;;;;;;9.20;6.73;;;13.80;99.90;;;;;;5072705;28;20180;-84
2023/10/24 09:54:50;;;;;;;10.30;6.57;;;13.80;99.90;;;;;;5072098;28;20185;-83
2023/10/24 09:57:22;;;;;;;8.87;5.20;;;13.80;99.90;;;;;;5072635;28;20724;-84
2023/10/24 09:59:54;;;;;;;7.93;5.00;;;13.80;99.90;;;;;;5071896;28;20235;-85
2023/10/24 10:02:24;;;;;;;13.73;6.87;;;13.80;99.90;;;;;;5070824;28;20213;-85
2023/10/24 10:04:53;;;;;;;6.73;5.93;;;13.90;99.90;;;;;;5071189;28;20285;-84
2023/10/24 10:07:22;;;;;;;7.37;5.43;;;13.90;99.90;;;;;;5071889;28;20198;-84
2023/10/24 10:09:54;;;;;;;7.63;5.37;;;14.00;99.90;;;;;;5071883;28;20177;-85
2023/10/24 10:12:20;;;;;;;9.43;5.57;;;13.90;99.90;;;;;;5070610;28;20799;-84
2023/10/24 10:18:50;;;;;;;10.37;5.07;;;14.00;99.90;;;;;;5072072;28;20637;-85
2023/10/24 10:21:28;;;;;;;7.93;4.93;;;14.00;99.90;;;;;;5072015;28;20233;-84
2023/10/24 10:24:20;;;;;;;9.07;6.20;;;13.90;99.90;;;;;;5070655;28;20309;-84
2023/10/24 10:26:57;;;;;;;8.73;6.07;;;14.00;99.90;;;;;;5070541;28;20229;-84
2023/10/24 10:29:43;;;;;;;7.83;5.17;;;14.20;99.90;;;;;;5072364;28;20220;-85
2023/10/24 10:32:56;;;;;;;7.07;5.77;;;14.10;99.90;;;;;;5071823;28;20287;-86
2023/10/24 10:35:48;;;;;;;11.27;6.53;;;14.20;99.90;;;;;;5072205;28;20237;-85
2023/10/24 10:38:35;;;;;;;10.30;5.80;;;14.20;99.90;;;;;;5071109;28;20294;-85
2023/10/24 10:41:23;;;;;;;10.70;6.33;;;14.10;99.90;;;;;;5070876;28;20220;-85
2023/10/24 10:43:50;;;;;;;12.47;5.53;;;14.10;99.90;;;;;;5070852;28;20217;-86
2023/10/24 10:46:25;;;;;;;20.33;6.77;;;14.00;99.90;;;;;;5070483;28;20212;-86
2023/10/24 10:49:11;;;;;;;8.50;5.87;;;14.00;99.90;;;;;;5070458;28;20183;-85
2023/10/24 10:51:37;;;;;;;9.93;6.03;;;14.10;99.90;;;;;;5069977;28;20224;-87
2023/10/24 10:54:12;;;;;;;11.07;6.57;;;14.10;99.90;;;;;;5069943;28;20721;-85
2023/10/24 10:56:46;;;;;;;8.53;6.83;;;14.00;99.90;;;;;;5071994;28;20262;-85
2023/10/24 10:59:32;;;;;;;;;;;;;;;;;;;;;
2023/10/24 11:02:58;;;;;;;8.90;5.93;;;14.00;99.90;;;;;;5009747;28;20353;-85
2023/10/24 11:05:35;;;;;;;13.73;6.67;;;14.00;99.90;;;;;;4993533;28;20226;-85
2023/10/24 11:08:02;;;;;;;6.73;5.90;;;14.00;99.90;;;;;;5058976;28;20711;-86
2023/10/24 11:10:56;;;;;;;14.87;6.73;;;13.90;99.90;;;;;;5047648;28;20209;-85
2023/10/24 11:13:48;;;;;;;10.47;5.80;;;14.00;99.90;;;;;;5062054;28;20181;-85
2023/10/24 11:16:21;;;;;;;15.70;7.43;;;14.00;99.90;;;;;;5070430;28;20285;-87
2023/10/24 11:18:47;;;;;;;12.10;6.40;;;14.00;99.90;;;;;;5070746;28;20165;-85
2023/10/24 11:21:22;;;;;;;13.73;5.63;;;13.90;99.90;;;;;;5070377;28;20552;-86
2023/10/24 11:27:32;;;;;;;7.83;6.63;;;14.00;99.90;;;;;;5048998;28;20601;-86
2023/10/24 11:29:57;;;;;;;7.70;6.03;;;14.00;99.90;;;;;;5048840;28;20276;-86
2023/10/24 11:32:23;;;;;;;10.40;7.70;;;14.00;99.90;;;;;;5002904;28;20262;-86
2023/10/24 11:34:49;;;;;;;11.83;5.37;;;14.10;99.90;;;;;;5016537;28;20309;-87
2023/10/24 11:37:24;;;;;;;12.00;6.93;;;14.10;99.90;;;;;;5049259;28;20592;-84
2023/10/24 11:39:50;;;;;;;13.70;7.03;;;14.10;99.90;;;;;;5049690;28;20193;-84
2023/10/24 11:42:21;;;;;;;14.67;7.70;;;14.10;99.90;;;;;;5038884;28;20248;-86
2023/10/24 11:44:47;;;;;;;10.33;6.60;;;14.20;99.90;;;;;;5032123;28;20218;-84
2023/10/24 11:47:16;;;;;;;8.40;4.70;;;14.10;99.90;;;;;;5032975;28;20237;-86
2023/10/24 11:49:45;;;;;;;9.87;5.83;;;14.10;99.90;;;;;;5036479;28;20209;-86
2023/10/24 11:52:11;;;;;;;9.73;6.23;;;14.10;99.90;;;;;;5036320;28;20182;-85
2023/10/24 11:54:39;;;;;;;10.13;7.77;;;14.20;99.90;;;;;;5062851;28;20572;-85
2023/10/24 11:57:05;;;;;;;8.60;6.70;;;14.10;99.90;;;;;;5075393;28;20244;-85
2023/10/24 11:59:33;;;;;;;7.07;5.00;;;14.20;99.90;;;;;;5073849;28;20290;-84
2023/10/24 12:02:01;;;;;;;9.67;4.77;;;14.10;99.90;;;;;;5074900;28;20205;-86
2023/10/24 12:04:27;;;;;;;8.90;6.00;;;14.10;99.90;;;;;;5073567;28;20602;-85
2023/10/24 12:07:08;;;;;;;30.53;6.77;;;14.10;99.90;;;;;;5073817;28;20220;-84
2023/10/24 12:09:36;;;;;;;10.33;6.47;;;14.20;99.90;;;;;;5075397;28;20209;-86
2023/10/24 12:12:06;;;;;;;6.60;5.73;;;14.20;99.90;;;;;;5056507;28;20252;-85
2023/10/24 12:14:35;;;;;;;13.67;6.47;;;14.20;99.90;;;;;;5057359;28;20669;-84
2023/10/24 12:17:03;;;;;;;10.87;6.63;;;14.20;99.90;;;;;;5057963;28;20220;-85
2023/10/24 12:19:28;;;;;;;8.97;6.77;;;14.30;99.90;;;;;;5073897;28;20300;-85
2023/10/24 12:21:55;;;;;;;14.27;6.60;;;14.30;99.90;;;;;;5057053;28;20253;-84
2023/10/24 12:24:20;;;;;;;12.80;6.70;;;14.20;99.90;;;;;;5074704;28;20252;-86
2023/10/24 12:26:46;;;;;;;6.23;4.97;;;14.30;99.90;;;;;;5074592;28;20702;-84
2023/10/24 12:29:12;;;;;;;6.43;5.80;;;14.30;99.90;;;;;;5056219;28;20232;-84
2023/10/24 12:31:38;;;;;;;7.83;5.43;;;14.40;99.90;;;;;;5056295;28;20273;-84
2023/10/24 12:34:04;;;;;;;5.93;5.13;;;14.30;99.90;;;;;;5057629;28;20280;-84
2023/10/24 12:36:30;;;;;;;6.27;4.73;;;14.30;99.90;;;;;;5039680;28;20681;-84
2023/10/24 12:38:56;;;;;;;9.07;6.07;;;14.30;99.90;;;;;;5072915;28;20283;-85
2023/10/24 12:41:22;;;;;;;8.57;6.33;;;14.20;99.90;;;;;;5056631;28;20205;-86
2023/10/24 12:43:48;;;;;;;7.23;5.00;;;14.30;99.90;;;;;;5074868;28;20201;-85
2023/10/24 12:46:14;;;;;;;12.57;5.37;;;14.30;99.90;;;;;;5056663;28;20224;-85
2023/10/24 12:48:40;;;;;;;16.63;6.67;;;14.20;99.90;;;;;;5057033;28;20180;-85
2023/10/24 12:51:06;;;;;;;6.73;5.23;;;14.20;99.90;;;;;;5073939;28;20246;-85
2023/10/24 12:53:32;;;;;;;7.67;3.93;;;14.20;99.90;;;;;;5056433;28;20213;-85
2023/10/24 12:55:59;;;;;;;7.37;5.80;;;14.10;99.90;;;;;;5072855;28;20209;-85
2023/10/24 12:58:25;;;;;;;6.20;5.23;;;14.20;99.90;;;;;;5039293;28;20596;-85